Terminal Aerodrome Forecast
Issued by NWS Binghamton, NY

Home | Current Version | Previous Version | Text Only | Print | Product List | Glossary On
Versions: 1 2 3 4 5 6 7 8 9 10 11 12 13 14 15 16 17 18 19 20
000
FTUS41 KBGM 201700
TAFSYR
TAF
KSYR 201726Z 2018/2118 19008KT P6SM OVC100
     FM202100 19010KT P6SM OVC060
      TEMPO 2104/2108 -SHRA
     FM210800 09005KT 6SM -SHRA OVC030 PROB30 2113/2118 4SM -SHRA BR
      OVC015=

USA.gov is the U.S. government's official web portal to all federal, state and local government web resources and services.